createdAt,value
2017-03-07T04:48:18.257Z,0
2017-03-07T04:48:58.680Z,0
2017-03-07T17:26:16.004Z,0
2017-03-07T17:26:56.384Z,0
2017-03-07T17:27:36.783Z,0
2017-03-07T17:28:17.557Z,0
2017-03-07T17:28:57.737Z,0
2017-03-07T19:38:09.648Z,0
2017-03-07T19:38:50.038Z,0
2017-03-07T20:13:46.692Z,0
2017-03-07T20:17:40.633Z,0
2017-03-07T20:20:46.355Z,0
2017-03-07T20:21:30.426Z,0
2017-03-07T20:22:11.605Z,0
2017-03-07T20:25:13.398Z,0
2017-03-07T20:25:54.049Z,0
2017-03-07T20:26:35.111Z,0
2017-03-07T20:27:17.454Z,0
2017-03-07T20:44:08.676Z,0
2017-03-07T20:44:49.166Z,0
2017-03-07T20:45:31.289Z,0
2017-03-07T20:46:12.269Z,0
2017-03-07T20:46:52.640Z,0
2017-03-07T20:47:33.123Z,0
2017-03-07T20:48:13.522Z,0
2017-03-07T20:55:06.520Z,0
2017-03-07T20:55:48.536Z,0
2017-03-07T20:56:29.007Z,996.48
2017-03-07T20:57:11.198Z,996.48
2017-03-07T20:57:51.563Z,996.48
2017-03-07T20:58:32.593Z,996.48
2017-03-07T20:59:12.960Z,996.48
2017-03-07T20:59:55.481Z,996.48
2017-03-07T21:00:36.780Z,996.48
2017-03-07T21:01:20.949Z,996.48
2017-03-07T21:02:02.157Z,996.48
2017-03-07T21:02:44.279Z,996.55
2017-03-07T21:03:24.717Z,996.55
2017-03-07T21:04:06.769Z,996.62
2017-03-07T21:04:49.625Z,996.62
2017-03-07T21:05:33.669Z,996.61
2017-03-07T21:06:14.095Z,996.58
2017-03-07T21:06:55.950Z,996.58
2017-03-07T21:07:36.379Z,996.58
2017-03-07T21:08:19.491Z,996.58
2017-03-07T21:09:01.692Z,996.58
2017-03-07T21:09:43.105Z,996.7
2017-03-07T21:10:23.504Z,996.7
2017-03-07T21:11:04.441Z,996.7
2017-03-07T21:11:49.496Z,996.7
2017-03-07T21:12:32.574Z,996.7
2017-03-07T21:13:13.015Z,996.74
2017-03-07T21:13:57.458Z,996.74
2017-03-07T21:14:37.934Z,996.74
2017-03-07T21:15:18.373Z,996.74
2017-03-07T21:15:59.382Z,996.71
2017-03-07T21:16:40.642Z,996.71
2017-03-07T21:17:21.951Z,996.69
2017-03-07T21:18:02.260Z,996.7
2017-03-07T21:18:44.229Z,996.66
2017-03-07T21:19:27.970Z,996.66
2017-03-07T21:20:11.041Z,996.66
2017-03-07T21:20:55.256Z,996.66
2017-03-07T21:41:13.174Z,0
2017-03-07T21:50:05.659Z,0
2017-03-07T21:50:47.103Z,0
2017-03-07T22:11:13.898Z,0
2017-03-07T22:11:55.659Z,0
2017-03-07T22:12:36.861Z,0
2017-03-07T22:13:17.346Z,0
2017-03-07T22:15:36.206Z,0
2017-03-07T22:16:18.597Z,0
2017-03-07T22:17:00.864Z,0
